sensor_id;sensor_type;location;lat;lon;timestamp;pressure;altitude;pressure_sealevel;temperature;humidity
57086;BME280;42964;42.910;23.792;2023-02-16T00:01:37;99009.91;;;-0.62;77.67
57086;BME280;42964;42.910;23.792;2023-02-16T00:06:35;99009.22;;;-0.59;77.26
57086;BME280;42964;42.910;23.792;2023-02-16T00:11:34;99008.72;;;-0.67;77.05
57086;BME280;42964;42.910;23.792;2023-02-16T00:16:52;99004.09;;;-0.72;77.21
57086;BME280;42964;42.910;23.792;2023-02-16T00:21:53;99008.50;;;-0.70;77.72
57086;BME280;42964;42.910;23.792;2023-02-16T00:26:52;98995.78;;;-0.70;77.39
57086;BME280;42964;42.910;23.792;2023-02-16T00:31:51;99007.16;;;-0.78;77.97
57086;BME280;42964;42.910;23.792;2023-02-16T00:36:50;99005.38;;;-0.79;77.20
57086;BME280;42964;42.910;23.792;2023-02-16T00:41:49;99013.72;;;-0.82;78.24
57086;BME280;42964;42.910;23.792;2023-02-16T00:46:47;99000.97;;;-0.82;77.05
57086;BME280;42964;42.910;23.792;2023-02-16T00:51:47;99005.69;;;-0.88;77.41
57086;BME280;42964;42.910;23.792;2023-02-16T00:56:46;99012.38;;;-0.90;77.60
57086;BME280;42964;42.910;23.792;2023-02-16T01:01:44;98998.81;;;-0.89;77.87
57086;BME280;42964;42.910;23.792;2023-02-16T01:06:43;98995.09;;;-0.94;77.52
57086;BME280;42964;42.910;23.792;2023-02-16T01:12:06;98995.28;;;-0.91;77.99
57086;BME280;42964;42.910;23.792;2023-02-16T01:17:08;98994.34;;;-0.93;77.51
57086;BME280;42964;42.910;23.792;2023-02-16T01:22:07;98984.91;;;-0.94;77.59
57086;BME280;42964;42.910;23.792;2023-02-16T01:27:08;98981.38;;;-0.96;77.97
57086;BME280;42964;42.910;23.792;2023-02-16T01:32:09;98984.72;;;-0.97;77.18
57086;BME280;42964;42.910;23.792;2023-02-16T01:37:14;98975.91;;;-1.02;77.69
57086;BME280;42964;42.910;23.792;2023-02-16T01:52:28;98969.63;;;-1.07;77.52
57086;BME280;42964;42.910;23.792;2023-02-16T01:57:32;98966.69;;;-1.13;78.24
57086;BME280;42964;42.910;23.792;2023-02-16T02:02:35;98972.19;;;-1.20;77.78
57086;BME280;42964;42.910;23.792;2023-02-16T02:07:41;98959.91;;;-1.26;77.40
57086;BME280;42964;42.910;23.792;2023-02-16T02:12:47;98960.41;;;-1.32;78.03
57086;BME280;42964;42.910;23.792;2023-02-16T02:17:47;98959.53;;;-1.32;78.20
57086;BME280;42964;42.910;23.792;2023-02-16T02:28:21;98961.47;;;-1.41;77.91
57086;BME280;42964;42.910;23.792;2023-02-16T02:38:32;98962.75;;;-1.48;78.39
57086;BME280;42964;42.910;23.792;2023-02-16T02:48:52;98963.63;;;-1.48;78.14
57086;BME280;42964;42.910;23.792;2023-02-16T02:53:59;98961.56;;;-1.53;78.19
57086;BME280;42964;42.910;23.792;2023-02-16T02:59:17;98969.19;;;-1.53;78.53
57086;BME280;42964;42.910;23.792;2023-02-16T03:04:34;98959.00;;;-1.53;77.55
57086;BME280;42964;42.910;23.792;2023-02-16T03:09:33;98961.94;;;-1.60;77.81
57086;BME280;42964;42.910;23.792;2023-02-16T03:14:33;98964.88;;;-1.68;77.60
57086;BME280;42964;42.910;23.792;2023-02-16T03:19:32;98971.09;;;-2.01;79.34
57086;BME280;42964;42.910;23.792;2023-02-16T03:24:50;98972.56;;;-2.04;79.04
57086;BME280;42964;42.910;23.792;2023-02-16T03:30:07;98966.06;;;-2.13;78.62
57086;BME280;42964;42.910;23.792;2023-02-16T03:35:08;98972.13;;;-2.11;79.10
57086;BME280;42964;42.910;23.792;2023-02-16T03:40:11;98961.28;;;-2.08;79.07
57086;BME280;42964;42.910;23.792;2023-02-16T03:45:26;98965.63;;;-2.07;78.73
57086;BME280;42964;42.910;23.792;2023-02-16T03:50:25;98963.38;;;-2.02;78.76
57086;BME280;42964;42.910;23.792;2023-02-16T03:55:24;98967.06;;;-2.11;78.88
57086;BME280;42964;42.910;23.792;2023-02-16T04:00:23;98966.19;;;-2.11;79.11
57086;BME280;42964;42.910;23.792;2023-02-16T04:05:22;98968.59;;;-2.13;79.23
57086;BME280;42964;42.910;23.792;2023-02-16T04:10:21;98966.84;;;-2.14;79.21
57086;BME280;42964;42.910;23.792;2023-02-16T04:15:24;98966.66;;;-2.17;79.06
57086;BME280;42964;42.910;23.792;2023-02-16T04:20:24;98956.47;;;-2.17;79.29
57086;BME280;42964;42.910;23.792;2023-02-16T04:25:24;98965.34;;;-2.23;79.11
57086;BME280;42964;42.910;23.792;2023-02-16T04:30:27;98965.91;;;-2.28;78.69
57086;BME280;42964;42.910;23.792;2023-02-16T04:35:26;98955.41;;;-2.32;79.03
57086;BME280;42964;42.910;23.792;2023-02-16T04:40:25;98957.84;;;-2.34;78.80
57086;BME280;42964;42.910;23.792;2023-02-16T04:45:23;98959.06;;;-2.29;79.28
57086;BME280;42964;42.910;23.792;2023-02-16T04:50:22;98962.06;;;-2.34;78.61
57086;BME280;42964;42.910;23.792;2023-02-16T04:55:21;98957.84;;;-2.34;78.71
57086;BME280;42964;42.910;23.792;2023-02-16T05:00:19;98955.22;;;-2.35;78.42
57086;BME280;42964;42.910;23.792;2023-02-16T05:05:18;98965.16;;;-2.38;78.30
57086;BME280;42964;42.910;23.792;2023-02-16T05:10:17;98955.47;;;-2.44;78.69
57086;BME280;42964;42.910;23.792;2023-02-16T05:15:16;98963.28;;;-2.41;78.34
57086;BME280;42964;42.910;23.792;2023-02-16T05:20:15;98965.50;;;-2.45;79.12
57086;BME280;42964;42.910;23.792;2023-02-16T05:25:13;98968.16;;;-2.44;79.02
57086;BME280;42964;42.910;23.792;2023-02-16T05:30:12;98987.06;;;-2.40;78.84
57086;BME280;42964;42.910;23.792;2023-02-16T05:35:11;98986.28;;;-2.39;78.78
57086;BME280;42964;42.910;23.792;2023-02-16T05:40:10;98981.31;;;-2.38;79.00
57086;BME280;42964;42.910;23.792;2023-02-16T05:45:09;98997.88;;;-2.31;79.01
57086;BME280;42964;42.910;23.792;2023-02-16T05:50:08;98998.16;;;-2.27;78.41
57086;BME280;42964;42.910;23.792;2023-02-16T05:55:06;98998.28;;;-2.25;78.93
57086;BME280;42964;42.910;23.792;2023-02-16T06:00:05;98993.84;;;-2.16;78.87
57086;BME280;42964;42.910;23.792;2023-02-16T06:05:06;98993.22;;;-2.00;78.84
57086;BME280;42964;42.910;23.792;2023-02-16T06:10:05;98990.19;;;-1.94;78.57
57086;BME280;42964;42.910;23.792;2023-02-16T06:15:04;98999.03;;;-1.89;78.84
57086;BME280;42964;42.910;23.792;2023-02-16T06:20:02;99006.00;;;-1.87;78.60
57086;BME280;42964;42.910;23.792;2023-02-16T06:25:01;99004.53;;;-1.83;77.62
57086;BME280;42964;42.910;23.792;2023-02-16T06:30:00;99005.34;;;-1.71;78.01
57086;BME280;42964;42.910;23.792;2023-02-16T06:35:00;98865.56;;;-2.58;78.10
57086;BME280;42964;42.910;23.792;2023-02-16T06:39:58;98862.88;;;-2.47;78.16
57086;BME280;42964;42.910;23.792;2023-02-16T06:44:57;99011.00;;;-1.50;77.91
57086;BME280;42964;42.910;23.792;2023-02-16T06:49:56;99006.06;;;-1.35;77.92
57086;BME280;42964;42.910;23.792;2023-02-16T06:54:55;99001.06;;;-1.20;77.63
57086;BME280;42964;42.910;23.792;2023-02-16T06:59:53;99005.69;;;-1.01;77.30
57086;BME280;42964;42.910;23.792;2023-02-16T07:04:53;99001.88;;;-0.81;77.32
57086;BME280;42964;42.910;23.792;2023-02-16T07:09:52;98992.47;;;-0.69;77.25
57086;BME280;42964;42.910;23.792;2023-02-16T07:14:51;99001.97;;;-0.53;77.57
57086;BME280;42964;42.910;23.792;2023-02-16T07:19:49;98995.63;;;-0.31;76.76
57086;BME280;42964;42.910;23.792;2023-02-16T07:24:48;98995.09;;;-0.12;76.74
57086;BME280;42964;42.910;23.792;2023-02-16T07:29:47;98986.16;;;0.09;76.47
57086;BME280;42964;42.910;23.792;2023-02-16T07:34:46;98977.84;;;0.26;76.35
57086;BME280;42964;42.910;23.792;2023-02-16T07:39:44;98967.13;;;0.47;76.50
57086;BME280;42964;42.910;23.792;2023-02-16T07:44:43;98967.31;;;0.65;75.69
57086;BME280;42964;42.910;23.792;2023-02-16T07:49:42;98958.06;;;0.67;75.83
57086;BME280;42964;42.910;23.792;2023-02-16T07:54:40;98950.47;;;0.83;76.03
57086;BME280;42964;42.910;23.792;2023-02-16T07:59:39;98954.06;;;1.02;75.75
57086;BME280;42964;42.910;23.792;2023-02-16T08:04:38;98942.38;;;1.22;75.58
57086;BME280;42964;42.910;23.792;2023-02-16T08:09:38;98943.94;;;1.35;75.68
57086;BME280;42964;42.910;23.792;2023-02-16T08:14:37;98952.66;;;1.54;75.18
57086;BME280;42964;42.910;23.792;2023-02-16T08:19:36;98949.66;;;1.78;75.23
57086;BME280;42964;42.910;23.792;2023-02-16T08:24:35;98951.81;;;1.87;75.61
57086;BME280;42964;42.910;23.792;2023-02-16T08:29:35;98955.00;;;1.83;75.65
57086;BME280;42964;42.910;23.792;2023-02-16T08:34:34;98948.28;;;2.17;75.04
57086;BME280;42964;42.910;23.792;2023-02-16T08:39:32;98945.28;;;2.43;74.77
57086;BME280;42964;42.910;23.792;2023-02-16T08:44:32;98937.22;;;2.69;73.66
57086;BME280;42964;42.910;23.792;2023-02-16T08:49:31;98943.59;;;2.95;73.33
57086;BME280;42964;42.910;23.792;2023-02-16T08:54:30;98943.06;;;3.02;72.15
57086;BME280;42964;42.910;23.792;2023-02-16T08:59:30;98932.09;;;3.23;71.75
57086;BME280;42964;42.910;23.792;2023-02-16T09:04:30;98932.41;;;3.49;70.35
57086;BME280;42964;42.910;23.792;2023-02-16T09:09:29;98933.34;;;3.69;69.22
57086;BME280;42964;42.910;23.792;2023-02-16T09:14:28;98936.03;;;3.91;68.36
57086;BME280;42964;42.910;23.792;2023-02-16T09:19:27;98926.59;;;3.90;65.79
57086;BME280;42964;42.910;23.792;2023-02-16T09:24:25;98918.50;;;4.21;65.69
57086;BME280;42964;42.910;23.792;2023-02-16T09:29:24;98914.47;;;4.68;64.84
57086;BME280;42964;42.910;23.792;2023-02-16T09:34:23;98911.66;;;4.83;63.27
57086;BME280;42964;42.910;23.792;2023-02-16T09:39:22;98908.81;;;5.19;63.59
57086;BME280;42964;42.910;23.792;2023-02-16T09:44:29;98895.03;;;5.40;60.95
57086;BME280;42964;42.910;23.792;2023-02-16T09:49:39;98891.09;;;5.49;60.80
57086;BME280;42964;42.910;23.792;2023-02-16T09:54:39;98881.25;;;5.62;59.07
57086;BME280;42964;42.910;23.792;2023-02-16T10:10:06;98866.81;;;6.40;57.65
57086;BME280;42964;42.910;23.792;2023-02-16T10:15:11;98865.56;;;6.55;57.23
57086;BME280;42964;42.910;23.792;2023-02-16T10:25:17;98844.19;;;7.13;55.77
57086;BME280;42964;42.910;23.792;2023-02-16T10:30:18;98840.50;;;7.34;55.08
57086;BME280;42964;42.910;23.792;2023-02-16T10:35:19;98829.34;;;7.65;54.28
57086;BME280;42964;42.910;23.792;2023-02-16T10:40:21;98825.63;;;7.85;53.69
57086;BME280;42964;42.910;23.792;2023-02-16T10:45:30;98820.28;;;8.13;52.23
57086;BME280;42964;42.910;23.792;2023-02-16T10:55:36;98796.09;;;8.44;50.23
57086;BME280;42964;42.910;23.792;2023-02-16T11:05:35;98778.34;;;8.99;49.79
57086;BME280;42964;42.910;23.792;2023-02-16T11:15:34;98772.44;;;9.45;45.45
57086;BME280;42964;42.910;23.792;2023-02-16T11:20:54;98758.97;;;9.63;43.92
57086;BME280;42964;42.910;23.792;2023-02-16T11:25:53;98760.13;;;9.79;43.97
57086;BME280;42964;42.910;23.792;2023-02-16T11:30:57;98748.31;;;9.95;42.12
57086;BME280;42964;42.910;23.792;2023-02-16T11:35:57;98741.63;;;10.09;41.37
57086;BME280;42964;42.910;23.792;2023-02-16T11:40:57;98737.66;;;10.30;41.79
57086;BME280;42964;42.910;23.792;2023-02-16T11:46:01;98736.06;;;10.39;40.77
57086;BME280;42964;42.910;23.792;2023-02-16T11:51:02;98720.94;;;10.69;41.30
57086;BME280;42964;42.910;23.792;2023-02-16T11:56:20;98715.03;;;10.82;41.04
57086;BME280;42964;42.910;23.792;2023-02-16T12:01:23;98704.88;;;10.94;40.22
57086;BME280;42964;42.910;23.792;2023-02-16T12:06:31;98694.53;;;11.00;39.82
57086;BME280;42964;42.910;23.792;2023-02-16T12:27:01;98675.47;;;11.82;38.10
57086;BME280;42964;42.910;23.792;2023-02-16T12:37:33;98661.81;;;12.08;35.86
57086;BME280;42964;42.910;23.792;2023-02-16T12:47:44;98646.38;;;12.29;36.05
57086;BME280;42964;42.910;23.792;2023-02-16T12:52:46;98643.94;;;12.54;36.27
57086;BME280;42964;42.910;23.792;2023-02-16T13:03:19;98638.88;;;12.82;36.45
57086;BME280;42964;42.910;23.792;2023-02-16T13:08:38;98631.09;;;12.94;35.60
57086;BME280;42964;42.910;23.792;2023-02-16T13:13:37;98625.00;;;12.92;35.84
57086;BME280;42964;42.910;23.792;2023-02-16T13:18:37;98618.97;;;13.07;35.43
57086;BME280;42964;42.910;23.792;2023-02-16T13:34:10;98597.31;;;13.39;34.80
57086;BME280;42964;42.910;23.792;2023-02-16T13:44:37;98592.97;;;13.48;33.86
57086;BME280;42964;42.910;23.792;2023-02-16T13:49:38;98594.75;;;13.55;34.46
57086;BME280;42964;42.910;23.792;2023-02-16T13:54:40;98587.75;;;13.53;35.12
57086;BME280;42964;42.910;23.792;2023-02-16T13:59:47;98586.94;;;13.55;35.02
57086;BME280;42964;42.910;23.792;2023-02-16T14:09:47;98579.94;;;13.45;35.69
57086;BME280;42964;42.910;23.792;2023-02-16T14:19:58;98577.34;;;13.45;34.53
57086;BME280;42964;42.910;23.792;2023-02-16T14:25:02;98571.28;;;13.74;34.56
57086;BME280;42964;42.910;23.792;2023-02-16T14:30:02;98571.28;;;13.80;34.46
57086;BME280;42964;42.910;23.792;2023-02-16T15:00:42;98557.38;;;13.69;35.33
57086;BME280;42964;42.910;23.792;2023-02-16T15:05:48;98559.13;;;13.54;35.93
57086;BME280;42964;42.910;23.792;2023-02-16T15:10:51;98564.28;;;13.39;36.18
57086;BME280;42964;42.910;23.792;2023-02-16T15:15:56;98564.28;;;13.24;36.96
57086;BME280;42964;42.910;23.792;2023-02-16T15:20:56;98562.50;;;13.01;37.35
57086;BME280;42964;42.910;23.792;2023-02-16T15:25:59;98568.50;;;12.76;37.88
57086;BME280;42964;42.910;23.792;2023-02-16T15:30:59;98572.72;;;12.43;38.79
57086;BME280;42964;42.910;23.792;2023-02-16T15:36:03;98568.97;;;11.99;39.03
57086;BME280;42964;42.910;23.792;2023-02-16T15:41:06;98564.28;;;11.52;40.11
57086;BME280;42964;42.910;23.792;2023-02-16T15:46:06;98570.69;;;10.95;40.92
57086;BME280;42964;42.910;23.792;2023-02-16T15:51:15;98572.81;;;10.56;40.75
57086;BME280;42964;42.910;23.792;2023-02-16T15:56:17;98569.72;;;10.18;41.34
57086;BME280;42964;42.910;23.792;2023-02-16T16:01:26;98573.66;;;9.90;42.09
57086;BME280;42964;42.910;23.792;2023-02-16T16:06:37;98578.53;;;9.68;42.31
57086;BME280;42964;42.910;23.792;2023-02-16T16:11:37;98584.16;;;9.43;42.81
57086;BME280;42964;42.910;23.792;2023-02-16T16:16:36;98580.13;;;9.11;43.56
57086;BME280;42964;42.910;23.792;2023-02-16T16:21:44;98596.00;;;8.84;44.28
57086;BME280;42964;42.910;23.792;2023-02-16T16:26:50;98592.72;;;8.49;44.83
57086;BME280;42964;42.910;23.792;2023-02-16T16:31:51;98589.97;;;8.41;45.37
57086;BME280;42964;42.910;23.792;2023-02-16T16:36:54;98596.47;;;8.24;45.48
57086;BME280;42964;42.910;23.792;2023-02-16T16:46:52;98597.41;;;7.88;46.23
57086;BME280;42964;42.910;23.792;2023-02-16T16:51:51;98607.25;;;7.68;46.39
57086;BME280;42964;42.910;23.792;2023-02-16T16:56:50;98606.84;;;7.51;47.85
57086;BME280;42964;42.910;23.792;2023-02-16T17:01:48;98608.75;;;7.25;48.54
57086;BME280;42964;42.910;23.792;2023-02-16T17:06:47;98603.16;;;7.10;49.73
57086;BME280;42964;42.910;23.792;2023-02-16T17:11:46;98610.31;;;6.87;50.32
57086;BME280;42964;42.910;23.792;2023-02-16T17:16:48;98607.31;;;6.71;50.79
57086;BME280;42964;42.910;23.792;2023-02-16T17:21:50;98616.75;;;6.40;51.20
57086;BME280;42964;42.910;23.792;2023-02-16T17:26:48;98605.50;;;6.38;52.51
57086;BME280;42964;42.910;23.792;2023-02-16T17:31:47;98608.47;;;6.22;52.30
57086;BME280;42964;42.910;23.792;2023-02-16T17:36:46;98599.25;;;6.02;52.92
57086;BME280;42964;42.910;23.792;2023-02-16T17:41:45;98604.75;;;5.85;54.24
57086;BME280;42964;42.910;23.792;2023-02-16T17:46:45;98608.88;;;5.53;54.72
57086;BME280;42964;42.910;23.792;2023-02-16T17:51:43;98604.34;;;5.46;55.96
57086;BME280;42964;42.910;23.792;2023-02-16T17:56:42;98607.00;;;5.22;57.33
57086;BME280;42964;42.910;23.792;2023-02-16T18:01:43;98600.03;;;5.19;56.70
57086;BME280;42964;42.910;23.792;2023-02-16T18:06:42;98592.09;;;5.13;57.36
57086;BME280;42964;42.910;23.792;2023-02-16T18:11:40;98595.09;;;5.00;57.69
57086;BME280;42964;42.910;23.792;2023-02-16T18:16:39;98607.47;;;4.87;57.76
57086;BME280;42964;42.910;23.792;2023-02-16T18:21:38;98590.69;;;4.73;58.53
57086;BME280;42964;42.910;23.792;2023-02-16T18:26:37;98595.34;;;4.59;58.82
57086;BME280;42964;42.910;23.792;2023-02-16T18:31:35;98605.78;;;4.40;59.80
57086;BME280;42964;42.910;23.792;2023-02-16T18:36:34;98593.28;;;4.26;60.59
57086;BME280;42964;42.910;23.792;2023-02-16T18:41:33;98596.09;;;4.10;60.51
57086;BME280;42964;42.910;23.792;2023-02-16T18:46:32;98592.19;;;3.97;61.41
57086;BME280;42964;42.910;23.792;2023-02-16T18:51:31;98601.28;;;3.89;61.70
57086;BME280;42964;42.910;23.792;2023-02-16T18:56:31;98600.19;;;3.82;61.56
57086;BME280;42964;42.910;23.792;2023-02-16T19:01:32;98603.06;;;3.69;61.75
57086;BME280;42964;42.910;23.792;2023-02-16T19:06:31;98602.06;;;3.44;63.66
57086;BME280;42964;42.910;23.792;2023-02-16T19:11:30;98593.59;;;3.46;64.13
57086;BME280;42964;42.910;23.792;2023-02-16T19:16:30;98600.06;;;3.37;63.94
57086;BME280;42964;42.910;23.792;2023-02-16T19:21:28;98603.16;;;3.29;64.15
57086;BME280;42964;42.910;23.792;2023-02-16T19:26:27;98609.16;;;3.29;64.21
57086;BME280;42964;42.910;23.792;2023-02-16T19:31:27;98601.84;;;3.17;64.50
57086;BME280;42964;42.910;23.792;2023-02-16T19:36:27;98600.44;;;3.05;65.30
57086;BME280;42964;42.910;23.792;2023-02-16T19:41:29;98599.38;;;2.99;65.72
57086;BME280;42964;42.910;23.792;2023-02-16T19:46:28;98601.41;;;2.87;65.58
57086;BME280;42964;42.910;23.792;2023-02-16T19:51:27;98594.00;;;2.74;66.27
57086;BME280;42964;42.910;23.792;2023-02-16T19:56:26;98590.28;;;2.67;66.50
57086;BME280;42964;42.910;23.792;2023-02-16T20:01:26;98584.03;;;2.61;66.28
57086;BME280;42964;42.910;23.792;2023-02-16T20:11:24;98581.00;;;2.50;67.09
57086;BME280;42964;42.910;23.792;2023-02-16T20:16:23;98576.88;;;2.34;68.09
57086;BME280;42964;42.910;23.792;2023-02-16T20:21:23;98583.34;;;2.26;68.21
57086;BME280;42964;42.910;23.792;2023-02-16T20:26:30;98575.47;;;2.21;68.82
57086;BME280;42964;42.910;23.792;2023-02-16T20:36:27;98574.56;;;1.83;70.99
57086;BME280;42964;42.910;23.792;2023-02-16T20:41:26;98579.69;;;1.83;70.54
57086;BME280;42964;42.910;23.792;2023-02-16T20:46:25;98571.53;;;1.72;70.50
57086;BME280;42964;42.910;23.792;2023-02-16T20:51:24;98580.66;;;1.67;70.59
57086;BME280;42964;42.910;23.792;2023-02-16T20:56:23;98592.22;;;1.59;70.92
57086;BME280;42964;42.910;23.792;2023-02-16T21:06:21;98590.13;;;1.34;71.97
57086;BME280;42964;42.910;23.792;2023-02-16T21:11:20;98590.34;;;1.39;72.10
57086;BME280;42964;42.910;23.792;2023-02-16T21:16:19;98586.06;;;1.38;71.88
57086;BME280;42964;42.910;23.792;2023-02-16T21:21:18;98581.69;;;1.35;72.31
57086;BME280;42964;42.910;23.792;2023-02-16T21:26:17;98594.00;;;1.26;72.97
57086;BME280;42964;42.910;23.792;2023-02-16T21:31:18;98593.41;;;1.31;72.57
57086;BME280;42964;42.910;23.792;2023-02-16T21:36:21;98588.41;;;1.33;72.48
57086;BME280;42964;42.910;23.792;2023-02-16T21:41:21;98598.16;;;1.24;73.11
57086;BME280;42964;42.910;23.792;2023-02-16T21:46:23;98593.69;;;1.20;73.25
57086;BME280;42964;42.910;23.792;2023-02-16T21:51:24;98582.38;;;1.15;73.39
57086;BME280;42964;42.910;23.792;2023-02-16T21:56:36;98589.81;;;1.10;73.57
57086;BME280;42964;42.910;23.792;2023-02-16T22:01:37;98582.00;;;1.07;73.89
57086;BME280;42964;42.910;23.792;2023-02-16T22:06:38;98578.28;;;1.00;74.39
57086;BME280;42964;42.910;23.792;2023-02-16T22:11:37;98586.09;;;0.87;75.26
57086;BME280;42964;42.910;23.792;2023-02-16T22:16:36;98587.56;;;0.82;75.18
57086;BME280;42964;42.910;23.792;2023-02-16T22:21:36;98584.38;;;0.86;75.04
57086;BME280;42964;42.910;23.792;2023-02-16T22:26:35;98581.66;;;0.83;75.33
57086;BME280;42964;42.910;23.792;2023-02-16T22:31:34;98577.34;;;0.82;75.23
57086;BME280;42964;42.910;23.792;2023-02-16T22:36:34;98586.47;;;0.60;76.25
57086;BME280;42964;42.910;23.792;2023-02-16T22:41:33;98567.88;;;0.63;75.68
57086;BME280;42964;42.910;23.792;2023-02-16T22:46:32;98583.81;;;0.59;75.96
57086;BME280;42964;42.910;23.792;2023-02-16T22:51:31;98570.53;;;0.48;76.43
57086;BME280;42964;42.910;23.792;2023-02-16T22:56:30;98566.63;;;0.55;76.12
57086;BME280;42964;42.910;23.792;2023-02-16T23:01:29;98569.31;;;0.58;75.99
57086;BME280;42964;42.910;23.792;2023-02-16T23:06:29;98553.75;;;0.53;75.87
57086;BME280;42964;42.910;23.792;2023-02-16T23:11:28;98566.44;;;0.52;75.53
57086;BME280;42964;42.910;23.792;2023-02-16T23:16:27;98554.41;;;0.49;75.67
57086;BME280;42964;42.910;23.792;2023-02-16T23:21:30;98550.97;;;0.48;75.74
57086;BME280;42964;42.910;23.792;2023-02-16T23:26:29;98559.25;;;0.44;76.23
57086;BME280;42964;42.910;23.792;2023-02-16T23:31:35;98543.31;;;0.48;76.01
57086;BME280;42964;42.910;23.792;2023-02-16T23:36:35;98551.44;;;0.41;76.02
57086;BME280;42964;42.910;23.792;2023-02-16T23:41:34;98556.56;;;0.25;77.03
57086;BME280;42964;42.910;23.792;2023-02-16T23:46:33;98543.63;;;0.05;78.39
57086;BME280;42964;42.910;23.792;2023-02-16T23:51:31;98533.72;;;0.12;78.37
57086;BME280;42964;42.910;23.792;2023-02-16T23:56:30;98527.44;;;0.21;77.99
